Time;durP1;ratioP1;P1;durP2;ratioP2;P2;SDS_P1;SDS_P2;PMS_P1;PMS_P2;Temp;Humidity;BMP_temperature;BMP_pressure;BME280_temperature;BME280_humidity;BME280_pressure;Samples;Min_cycle;Max_cycle;Signal;HPM_P1;HPM_P2
2022/10/07 00:01:28;;;;;;;18.48;4.10;;;;;;;9.23;100.00;102448.81;5057214;28;20088;-86
2022/10/07 00:03:54;;;;;;;11.80;4.10;;;;;;;9.17;100.00;102446.38;5041533;28;20079;-86
2022/10/07 00:06:21;;;;;;;13.93;3.78;;;;;;;9.23;100.00;102451.56;5041729;28;20111;-86
2022/10/07 00:08:49;;;;;;;18.60;4.53;;;;;;;9.25;100.00;102446.00;5021645;28;20029;-86
2022/10/07 00:11:17;;;;;;;18.00;4.15;;;;;;;9.16;100.00;102455.53;5035203;28;20129;-86
2022/10/07 00:13:45;;;;;;;13.80;4.18;;;;;;;9.02;100.00;102446.13;5034235;28;20021;-86
2022/10/07 00:16:19;;;;;;;16.33;3.65;;;;;;;9.00;100.00;102450.78;5041739;28;20051;-86
2022/10/07 00:18:44;;;;;;;13.32;4.00;;;;;;;8.98;100.00;102439.03;5058302;28;20060;-86
2022/10/07 00:21:14;;;;;;;17.73;4.15;;;;;;;9.05;100.00;102447.84;5037661;28;20512;-86
2022/10/07 00:23:43;;;;;;;17.55;3.92;;;;;;;8.99;100.00;102446.28;5053438;28;20125;-86
2022/10/07 00:26:11;;;;;;;9.75;4.07;;;;;;;9.00;100.00;102445.34;5027219;28;20048;-86
2022/10/07 00:28:38;;;;;;;17.10;3.88;;;;;;;8.95;100.00;102438.28;5054334;28;20106;-87
2022/10/07 00:31:07;;;;;;;17.92;3.90;;;;;;;8.92;100.00;102435.69;5057189;28;20033;-87
2022/10/07 00:33:35;;;;;;;11.98;3.85;;;;;;;8.87;100.00;102430.47;5040805;28;20108;-87
2022/10/07 00:36:25;;;;;;;18.33;3.83;;;;;;;8.94;100.00;102426.50;5056624;28;20051;-87
2022/10/07 00:38:56;;;;;;;19.48;3.75;;;;;;;8.96;100.00;102429.16;5048779;28;20043;-87
2022/10/07 00:41:31;;;;;;;20.58;5.90;;;;;;;8.97;100.00;102422.75;5057577;28;20404;-87
2022/10/07 00:43:58;;;;;;;14.05;4.07;;;;;;;8.94;100.00;102422.88;5041640;28;20029;-87
2022/10/07 00:46:37;;;;;;;9.63;3.65;;;;;;;8.89;100.00;102435.88;5021366;28;20041;-86
2022/10/07 00:49:08;;;;;;;18.75;4.50;;;;;;;8.90;100.00;102427.56;5041298;28;20036;-86
2022/10/07 00:51:35;;;;;;;16.27;4.38;;;;;;;8.79;100.00;102427.22;5058176;28;20036;-86
2022/10/07 00:54:05;;;;;;;20.08;4.75;;;;;;;8.82;100.00;102418.84;5041339;28;20021;-86
2022/10/07 00:56:32;;;;;;;17.40;4.93;;;;;;;8.72;100.00;102402.00;5054238;28;20040;-86
2022/10/07 00:58:58;;;;;;;22.38;4.72;;;;;;;8.68;100.00;102404.97;5056418;28;20028;-87
2022/10/07 01:01:24;;;;;;;21.13;4.05;;;;;;;8.68;100.00;102402.25;5059199;28;20396;-87
2022/10/07 01:03:50;;;;;;;17.92;4.18;;;;;;;8.64;100.00;102401.47;5041370;28;20069;-87
2022/10/07 01:06:16;;;;;;;12.95;4.45;;;;;;;8.69;100.00;102401.28;5039347;28;20048;-87
2022/10/07 01:08:44;;;;;;;13.38;4.05;;;;;;;8.68;100.00;102394.06;5021620;28;20033;-87
2022/10/07 01:11:16;;;;;;;17.55;4.72;;;;;;;8.67;100.00;102392.28;5011262;28;20056;-86
2022/10/07 01:13:48;;;;;;;28.30;4.45;;;;;;;8.64;100.00;102398.75;5041907;28;20388;-86
2022/10/07 01:16:38;;;;;;;13.95;4.95;;;;;;;8.61;100.00;102383.41;5046194;28;20041;-86
2022/10/07 01:19:16;;;;;;;20.27;4.20;;;;;;;8.59;100.00;102387.16;5045420;28;20057;-86
2022/10/07 01:22:10;;;;;;;16.08;4.68;;;;;;;8.61;100.00;102377.06;5053974;28;20063;-86
2022/10/07 01:24:41;;;;;;;18.75;4.32;;;;;;;8.65;100.00;102379.56;5037755;28;20038;-88
2022/10/07 01:27:12;;;;;;;18.80;4.47;;;;;;;8.55;100.00;102377.34;5056657;28;20029;-87
2022/10/07 01:29:56;;;;;;;11.88;3.97;;;;;;;8.51;100.00;102373.88;5020485;28;20026;-87
2022/10/07 01:32:30;;;;;;;22.17;4.45;;;;;;;8.57;100.00;102369.97;5034127;28;20523;-86
2022/10/07 01:34:57;;;;;;;21.38;4.45;;;;;;;8.61;100.00;102364.28;5040513;28;20048;-86
2022/10/07 01:37:25;;;;;;;17.55;4.32;;;;;;;8.55;100.00;102364.56;5027649;28;20476;-87
2022/10/07 01:39:56;;;;;;;30.40;4.80;;;;;;;8.49;100.00;102359.38;5045802;28;20123;-87
2022/10/07 01:42:25;;;;;;;16.67;4.35;;;;;;;8.55;100.00;102358.25;5045615;28;20407;-87
2022/10/07 01:44:53;;;;;;;22.15;4.30;;;;;;;8.53;100.00;102350.13;5061354;28;20472;-87
2022/10/07 01:47:19;;;;;;;15.75;4.60;;;;;;;8.56;100.00;102351.81;5061475;28;20036;-87
2022/10/07 01:49:44;;;;;;;16.05;4.45;;;;;;;8.57;100.00;102340.81;5062173;28;20083;-87
2022/10/07 01:52:25;;;;;;;12.50;4.13;;;;;;;8.59;100.00;102336.19;5024062;28;20040;-87
2022/10/07 01:55:13;;;;;;;22.98;4.85;;;;;;;8.60;100.00;102335.22;5034434;28;20037;-87
2022/10/07 01:58:05;;;;;;;17.38;4.70;;;;;;;8.58;100.00;102331.69;5055757;28;20029;-87
2022/10/07 02:00:35;;;;;;;17.90;4.70;;;;;;;8.29;100.00;102294.78;5043261;28;20033;-87
2022/10/07 02:03:09;;;;;;;14.55;4.45;;;;;;;8.55;100.00;102328.22;5043655;28;20459;-87
2022/10/07 02:05:49;;;;;;;16.52;4.28;;;;;;;8.42;100.00;102317.81;5042566;28;20037;-85
2022/10/07 02:08:30;;;;;;;15.38;4.30;;;;;;;8.46;100.00;102324.03;5047455;28;20055;-85
2022/10/07 02:11:35;;;;;;;16.88;4.70;;;;;;;8.49;100.00;102314.84;5049104;28;20057;-85
2022/10/07 02:14:06;;;;;;;21.90;3.90;;;;;;;8.40;100.00;102299.75;4969879;28;20031;-86
2022/10/07 02:16:40;;;;;;;18.42;4.10;;;;;;;8.44;100.00;102315.06;5065157;28;20045;-86
2022/10/07 02:19:22;;;;;;;17.15;4.07;;;;;;;8.38;100.00;102308.00;5061423;28;20036;-87
2022/10/07 02:21:49;;;;;;;13.95;3.65;;;;;;;8.33;100.00;102307.34;5056038;28;20033;-87
2022/10/07 02:24:20;;;;;;;17.88;4.10;;;;;;;8.25;100.00;102301.34;5057436;28;20374;-87
2022/10/07 02:26:48;;;;;;;18.77;4.45;;;;;;;8.31;100.00;102295.59;5056371;28;20484;-85
2022/10/07 02:29:17;;;;;;;16.80;4.63;;;;;;;8.33;100.00;102300.97;5075910;28;20039;-86
2022/10/07 02:31:46;;;;;;;16.67;4.18;;;;;;;8.31;100.00;102292.00;5063011;28;20384;-86
2022/10/07 02:34:15;;;;;;;19.45;4.30;;;;;;;8.29;100.00;102281.13;5062023;28;20025;-87
2022/10/07 02:36:46;;;;;;;22.15;4.43;;;;;;;8.29;100.00;102278.41;5045030;28;20036;-87
2022/10/07 02:39:12;;;;;;;24.05;3.95;;;;;;;8.29;100.00;102278.41;5061796;28;20082;-86
2022/10/07 02:41:49;;;;;;;27.75;4.40;;;;;;;8.35;100.00;102277.25;5065586;28;20029;-86
2022/10/07 02:44:24;;;;;;;12.02;3.90;;;;;;;8.30;100.00;102280.19;5042844;28;20096;-85
2022/10/07 02:47:02;;;;;;;23.17;4.03;;;;;;;8.28;100.00;102273.94;5049193;28;20131;-85
2022/10/07 02:49:30;;;;;;;19.65;3.85;;;;;;;8.24;100.00;102275.88;5061762;28;20037;-86
2022/10/07 02:52:04;;;;;;;31.67;4.72;;;;;;;8.25;100.00;102268.63;5042376;28;20028;-87
2022/10/07 02:54:41;;;;;;;20.95;4.32;;;;;;;8.20;100.00;102267.91;5076373;28;20033;-88
2022/10/07 02:57:09;;;;;;;17.05;4.30;;;;;;;8.18;100.00;102257.09;5042725;28;20025;-87
2022/10/07 02:59:38;;;;;;;23.35;4.00;;;;;;;8.10;100.00;102242.94;5051237;28;20115;-87
2022/10/07 03:02:09;;;;;;;18.63;3.95;;;;;;;8.19;100.00;102253.41;5043217;28;20041;-88
2022/10/07 03:04:35;;;;;;;20.48;4.55;;;;;;;8.11;100.00;102250.13;5043668;28;20041;-88
2022/10/07 03:07:00;;;;;;;19.85;4.38;;;;;;;8.15;100.00;102256.34;5026944;28;20082;-88
2022/10/07 03:09:27;;;;;;;21.42;4.45;;;;;;;8.10;100.00;102243.81;5042999;28;20029;-87
2022/10/07 03:11:53;;;;;;;15.45;4.78;;;;;;;8.14;100.00;102249.13;5026555;28;20052;-88
2022/10/07 03:14:18;;;;;;;14.40;4.18;;;;;;;8.11;100.00;102250.13;5010283;28;20033;-87
2022/10/07 03:16:43;;;;;;;16.33;4.45;;;;;;;8.03;100.00;102244.16;5044264;28;20025;-85
2022/10/07 03:19:09;;;;;;;18.35;5.25;;;;;;;7.94;100.00;102234.56;5049216;28;20037;-85
2022/10/07 03:21:35;;;;;;;24.80;4.82;;;;;;;8.01;100.00;102238.78;5032657;28;20043;-86
2022/10/07 03:24:03;;;;;;;34.15;5.07;;;;;;;7.98;100.00;102243.50;5049952;28;20040;-88
2022/10/07 03:26:30;;;;;;;19.17;5.13;;;;;;;7.71;100.00;102200.16;5049165;28;20404;-87
2022/10/07 03:28:57;;;;;;;20.38;5.35;;;;;;;7.82;100.00;102229.66;5030737;28;20055;-87
2022/10/07 03:31:22;;;;;;;17.30;4.72;;;;;;;7.95;100.00;102238.16;5030095;28;20032;-87
2022/10/07 03:33:48;;;;;;;16.48;5.60;;;;;;;7.91;100.00;102238.31;5029653;28;20029;-87
2022/10/07 03:36:13;;;;;;;16.25;5.80;;;;;;;7.88;100.00;102241.16;5056619;28;20033;-88
2022/10/07 03:38:39;;;;;;;25.10;6.30;;;;;;;7.86;100.00;102244.94;5056065;28;20131;-87
2022/10/07 03:41:05;;;;;;;37.85;5.75;;;;;;;7.77;100.00;102227.13;5026251;28;20086;-88
2022/10/07 03:43:31;;;;;;;21.25;6.22;;;;;;;7.55;100.00;102192.66;5043274;28;20037;-87
2022/10/07 03:45:57;;;;;;;19.90;6.68;;;;;;;7.75;100.00;102225.44;5042608;28;20029;-89
2022/10/07 03:48:23;;;;;;;22.30;6.18;;;;;;;7.73;100.00;102220.06;5026968;28;20549;-87
2022/10/07 03:50:49;;;;;;;23.67;7.20;;;;;;;7.75;100.00;102214.53;5028476;28;20480;-86
2022/10/07 03:53:15;;;;;;;22.17;7.05;;;;;;;7.63;100.00;102199.63;5060432;28;20123;-86
2022/10/07 03:55:40;;;;;;;17.00;6.20;;;;;;;7.83;100.00;102225.97;5026675;28;20482;-87
2022/10/07 03:58:06;;;;;;;20.75;5.80;;;;;;;7.76;100.00;102210.88;5055791;28;20092;-87
2022/10/07 04:00:31;;;;;;;22.55;5.50;;;;;;;7.74;100.00;102216.41;5023390;28;20029;-87
2022/10/07 04:02:57;;;;;;;25.27;5.75;;;;;;;7.67;100.00;102210.34;5035012;28;20036;-86
2022/10/07 04:05:22;;;;;;;14.50;5.50;;;;;;;7.69;100.00;102213.88;5049362;28;20032;-86
2022/10/07 04:07:49;;;;;;;20.13;4.97;;;;;;;7.68;100.00;102198.44;5044004;28;20059;-87
2022/10/07 04:10:17;;;;;;;17.60;4.72;;;;;;;7.69;100.00;102188.44;5043181;28;20053;-86
2022/10/07 04:12:43;;;;;;;22.05;4.95;;;;;;;7.76;100.00;102194.50;5063473;28;20025;-87
2022/10/07 04:15:12;;;;;;;27.70;5.22;;;;;;;7.74;100.00;102205.50;5013637;28;20026;-87
2022/10/07 04:17:39;;;;;;;18.60;4.80;;;;;;;7.71;100.00;102205.63;5009597;28;20029;-87
2022/10/07 04:20:06;;;;;;;26.90;4.70;;;;;;;7.65;100.00;102197.72;5042287;28;20024;-85
2022/10/07 04:22:32;;;;;;;25.40;5.60;;;;;;;7.70;100.00;102204.72;5021695;28;20044;-87
2022/10/07 04:27:42;;;;;;;20.58;5.07;;;;;;;7.68;100.00;102197.56;5030817;28;20038;-86
2022/10/07 04:30:08;;;;;;;19.88;4.18;;;;;;;7.63;100.00;102207.81;5042059;28;20040;-86
2022/10/07 04:32:34;;;;;;;13.23;4.47;;;;;;;7.56;100.00;102199.03;5062737;28;20052;-87
2022/10/07 04:35:00;;;;;;;20.67;5.68;;;;;;;7.59;100.00;102197.97;5043151;28;20048;-87
2022/10/07 04:37:27;;;;;;;19.05;6.25;;;;;;;7.61;100.00;102202.44;5043484;28;20041;-87
2022/10/07 04:39:52;;;;;;;18.90;5.05;;;;;;;7.60;100.00;102200.66;5024428;28;20431;-86
2022/10/07 04:45:02;;;;;;;27.48;6.35;;;;;;;7.60;100.00;102189.75;5031701;28;20037;-86
2022/10/07 04:47:27;;;;;;;15.82;5.90;;;;;;;7.57;100.00;102191.72;5041851;28;20036;-87
2022/10/07 04:49:54;;;;;;;24.17;5.82;;;;;;;7.55;100.00;102200.84;5080789;28;20048;-87
2022/10/07 04:52:19;;;;;;;23.60;5.35;;;;;;;7.58;100.00;102190.78;5030828;28;20033;-87
2022/10/07 04:54:45;;;;;;;19.15;7.00;;;;;;;7.58;100.00;102188.94;5028039;28;20087;-87
2022/10/07 04:57:12;;;;;;;21.17;5.47;;;;;;;7.59;100.00;102181.63;5027195;28;20407;-88
2022/10/07 04:59:38;;;;;;;19.42;5.93;;;;;;;7.55;100.00;102181.75;5032135;28;20053;-87
2022/10/07 05:02:04;;;;;;;28.25;6.00;;;;;;;7.56;100.00;102188.13;5034739;28;20048;-87
2022/10/07 05:04:29;;;;;;;23.80;5.72;;;;;;;7.56;100.00;102188.13;5041628;28;20032;-87
2022/10/07 05:06:55;;;;;;;23.02;5.80;;;;;;;7.50;100.00;102172.91;5026852;28;20041;-87
2022/10/07 05:09:21;;;;;;;16.92;5.70;;;;;;;7.43;100.00;102176.88;5043358;28;20033;-86
2022/10/07 05:11:47;;;;;;;25.98;6.57;;;;;;;7.44;100.00;102173.19;5034594;28;20055;-86
2022/10/07 05:14:13;;;;;;;32.13;6.40;;;;;;;7.41;100.00;102176.06;5058301;28;20170;-87
2022/10/07 05:16:39;;;;;;;20.13;6.93;;;;;;;7.38;100.00;102170.75;5041724;28;20088;-86
2022/10/07 05:19:04;;;;;;;26.77;6.68;;;;;;;7.40;100.00;102165.25;5037081;28;20029;-86
2022/10/07 05:21:29;;;;;;;25.27;6.65;;;;;;;7.36;100.00;102165.38;5061986;28;20021;-88
2022/10/07 05:23:55;;;;;;;24.55;6.93;;;;;;;7.45;100.00;102172.25;5045540;28;20481;-88
2022/10/07 05:26:20;;;;;;;21.52;6.28;;;;;;;7.36;100.00;102167.19;5038050;28;20052;-87
2022/10/07 05:28:48;;;;;;;20.80;6.22;;;;;;;7.39;100.00;102169.78;5034103;28;20503;-86
2022/10/07 05:31:14;;;;;;;24.45;6.05;;;;;;;7.30;100.00;102167.50;5026825;28;20049;-86
2022/10/07 05:33:40;;;;;;;19.70;6.13;;;;;;;7.35;100.00;102173.63;5064238;28;20064;-86
2022/10/07 05:36:07;;;;;;;26.08;6.32;;;;;;;7.37;100.00;102171.69;5047256;28;20044;-86
2022/10/07 05:38:33;;;;;;;22.75;5.65;;;;;;;7.35;100.00;102170.88;5036149;28;20064;-86
2022/10/07 05:41:01;;;;;;;19.55;5.75;;;;;;;7.33;100.00;102172.81;5042479;28;20025;-87
2022/10/07 05:43:29;;;;;;;23.42;5.68;;;;;;;7.29;100.00;102154.81;5024674;28;20038;-87
2022/10/07 05:46:06;;;;;;;19.23;5.60;;;;;;;7.31;100.00;102167.41;5052761;28;20025;-87
2022/10/07 05:48:33;;;;;;;28.30;5.60;;;;;;;7.27;100.00;102168.50;5039386;28;20127;-87
2022/10/07 05:50:59;;;;;;;24.73;5.80;;;;;;;7.24;100.00;102149.56;5024125;28;20033;-87
2022/10/07 05:53:26;;;;;;;25.77;5.55;;;;;;;7.30;100.00;102160.19;5058295;28;20034;-87
2022/10/07 05:55:52;;;;;;;16.88;5.32;;;;;;;7.36;100.00;102165.38;5059404;28;20021;-87
2022/10/07 05:58:18;;;;;;;15.80;5.78;;;;;;;7.19;100.00;102135.25;5028395;28;20029;-87
2022/10/07 06:00:52;;;;;;;14.23;4.90;;;;;;;7.42;100.00;102156.03;5059300;28;20476;-87
2022/10/07 06:03:19;;;;;;;21.42;5.93;;;;;;;7.40;100.00;102152.50;5059645;28;20029;-87
2022/10/07 06:05:46;;;;;;;15.77;5.25;;;;;;;7.41;100.00;102150.63;5061351;28;20021;-87
2022/10/07 06:08:11;;;;;;;17.15;4.32;;;;;;;7.43;100.00;102155.09;5030092;28;20156;-87
2022/10/07 06:13:22;;;;;;;14.50;4.78;;;;;;;7.44;100.00;102148.66;5057034;28;20029;-85
2022/10/07 06:15:49;;;;;;;22.63;5.13;;;;;;;7.47;100.00;102147.66;5044690;28;20132;-85
2022/10/07 06:18:14;;;;;;;25.50;5.32;;;;;;;7.44;100.00;102145.94;5044886;28;20033;-86
2022/10/07 06:20:39;;;;;;;26.95;6.15;;;;;;;7.44;100.00;102145.06;5059778;28;20023;-86
2022/10/07 06:23:06;;;;;;;14.80;4.90;;;;;;;7.47;100.00;102131.28;5027494;28;20037;-84
2022/10/07 06:25:32;;;;;;;23.70;5.70;;;;;;;7.52;100.00;102140.16;5043303;28;20068;-85
2022/10/07 06:27:58;;;;;;;22.73;5.57;;;;;;;7.61;100.00;102142.47;5042722;28;20029;-85
2022/10/07 06:30:24;;;;;;;20.23;6.05;;;;;;;7.50;100.00;102115.69;5041173;28;20124;-85
2022/10/07 06:32:50;;;;;;;22.65;5.38;;;;;;;7.72;100.00;102133.78;5060972;28;20492;-85
2022/10/07 06:35:15;;;;;;;27.50;5.75;;;;;;;7.77;100.00;102134.44;5043953;28;20032;-85
2022/10/07 06:37:41;;;;;;;15.93;4.65;;;;;;;7.93;100.00;102134.59;5059756;28;20033;-85
2022/10/07 06:40:07;;;;;;;18.25;4.78;;;;;;;8.08;100.00;102130.25;5009078;28;20033;-86
2022/10/07 06:42:32;;;;;;;19.33;5.22;;;;;;;8.22;100.00;102122.28;5023419;28;20045;-87
2022/10/07 06:44:58;;;;;;;19.33;5.10;;;;;;;8.27;100.00;102139.31;5039934;28;20167;-87
2022/10/07 06:47:23;;;;;;;15.90;4.40;;;;;;;8.44;100.00;102138.56;5040540;28;20134;-87
2022/10/07 06:49:49;;;;;;;17.15;4.35;;;;;;;8.62;100.00;102133.09;5044483;28;20017;-86
2022/10/07 06:52:14;;;;;;;23.02;5.88;;;;;;;8.74;100.00;102129.78;5043421;28;20092;-86
2022/10/07 06:54:40;;;;;;;20.17;4.88;;;;;;;8.70;100.00;102143.66;5008943;28;20033;-86
2022/10/07 06:57:05;;;;;;;21.25;3.90;;;;;;;8.72;100.00;102133.53;5028207;28;20067;-87
2022/10/07 06:59:31;;;;;;;23.30;4.65;;;;;;;8.91;100.00;102131.63;5025468;28;20412;-88
2022/10/07 07:01:57;;;;;;;23.15;4.35;;;;;;;9.06;100.00;102140.00;5034804;28;20033;-87
2022/10/07 07:04:23;;;;;;;16.75;4.07;;;;;;;9.14;100.00;102135.91;5038428;28;20037;-88
2022/10/07 07:06:49;;;;;;;725.13;70.65;;;;;;;9.30;100.00;102137.84;5017706;28;20041;-87
2022/10/07 07:09:21;;;;;;;35.35;5.22;;;;;;;9.25;100.00;102118.94;5012101;28;20135;-87
2022/10/07 07:11:57;;;;;;;26.63;5.00;;;;;;;9.35;100.00;102138.47;4488424;28;16403917;-87
2022/10/07 07:14:43;;;;;;;22.65;4.30;;;;;;;9.47;100.00;102132.31;5063017;28;20287;-86
2022/10/07 07:17:10;;;;;;;18.58;4.55;;;;;;;9.47;100.00;102136.91;5045025;28;20132;-86
2022/10/07 07:19:35;;;;;;;42.75;5.28;;;;;;;9.70;100.00;102141.13;5016650;28;20120;-79
2022/10/07 07:22:01;;;;;;;49.97;4.85;;;;;;;9.97;100.00;102140.56;5060706;28;20441;-85
2022/10/07 07:24:26;;;;;;;19.33;4.97;;;;;;;9.97;100.00;102143.31;5061018;28;20033;-83
2022/10/07 07:26:52;;;;;;;17.48;3.88;;;;;;;10.10;100.00;102145.28;5044277;28;20076;-82
2022/10/07 07:29:17;;;;;;;22.67;3.97;;;;;;;9.91;100.00;102134.47;5026169;28;20120;-82
2022/10/07 07:31:43;;;;;;;15.23;3.47;;;;;;;9.96;100.00;102142.44;5045294;28;20032;-83
2022/10/07 07:34:11;;;;;;;22.08;3.92;;;;;;;10.36;100.00;102142.06;5027839;28;20009;-83
2022/10/07 07:36:41;;;;;;;35.83;5.35;;;;;;;10.14;100.00;102109.53;5061545;28;20029;-83
2022/10/07 07:39:09;;;;;;;38.42;5.80;;;;;;;10.85;100.00;102141.91;5061436;28;20063;-83
2022/10/07 07:41:40;;;;;;;14.65;3.50;;;;;;;10.60;100.00;102145.22;5076983;28;20043;-83
2022/10/07 07:44:10;;;;;;;62.05;6.32;;;;;;;10.85;100.00;102145.56;5059388;28;20033;-83
2022/10/07 07:46:40;;;;;;;19.63;4.00;;;;;;;10.87;100.00;102133.59;5043949;28;20473;-83
2022/10/07 07:49:06;;;;;;;15.95;3.60;;;;;;;10.98;100.00;102142.06;5039956;28;20033;-83
2022/10/07 07:51:32;;;;;;;29.27;4.93;;;;;;;11.28;100.00;102146.66;5026039;28;20174;-83
2022/10/07 07:53:59;;;;;;;48.70;6.65;;;;;;;11.43;100.00;102132.00;5043326;28;20361;-82
2022/10/07 07:56:27;;;;;;;21.77;3.50;;;;;;;11.40;100.00;102138.56;5025710;28;20494;-81
2022/10/07 07:58:53;;;;;;;22.02;3.90;;;;;;;11.72;100.00;102138.41;5058583;28;20028;-83
2022/10/07 08:01:19;;;;;;;19.52;2.88;;;;;;;11.96;100.00;102146.09;5047750;28;20044;-82
2022/10/07 08:03:47;;;;;;;47.85;5.50;;;;;;;12.06;100.00;102140.88;5041597;28;20492;-82
2022/10/07 08:06:14;;;;;;;21.45;3.78;;;;;;;12.19;100.00;102150.09;5042545;28;20435;-82
2022/10/07 08:08:41;;;;;;;19.73;3.25;;;;;;;12.21;100.00;102145.34;5050431;28;20064;-83
2022/10/07 08:11:15;;;;;;;21.10;3.00;;;;;;;12.52;100.00;102148.84;5042059;28;20135;-83
2022/10/07 08:13:41;;;;;;;119.35;10.05;;;;;;;12.47;100.00;102145.50;5042609;28;20088;-83
2022/10/07 08:16:08;;;;;;;13.27;2.60;;;;;;;12.42;100.00;102136.69;5059307;28;20033;-83
2022/10/07 08:18:34;;;;;;;117.00;10.55;;;;;;;12.76;100.00;102131.69;5022127;28;20030;-82
2022/10/07 08:21:02;;;;;;;21.13;2.92;;;;;;;12.96;100.00;102131.19;5057596;28;20056;-83
2022/10/07 08:23:29;;;;;;;16.60;2.50;;;;;;;12.68;100.00;102122.09;5057836;28;20032;-82
2022/10/07 08:25:56;;;;;;;13.85;2.65;;;;;;;13.20;100.00;102122.25;5058606;28;20025;-82
2022/10/07 08:28:22;;;;;;;15.90;3.05;;;;;;;13.24;100.00;102119.16;5043576;28;20438;-82
2022/10/07 08:30:49;;;;;;;22.55;3.00;;;;;;;13.54;100.00;102125.38;5059230;28;20386;-81
2022/10/07 08:33:17;;;;;;;13.20;2.72;;;;;;;13.89;100.00;102119.22;5039750;28;20030;-82
2022/10/07 08:35:47;;;;;;;19.23;3.33;;;;;;;13.39;100.00;102117.22;5057737;28;20036;-82
2022/10/07 08:38:14;;;;;;;16.13;3.28;;;;;;;13.86;100.00;102112.06;5059718;28;20092;-82
2022/10/07 08:40:47;;;;;;;16.05;2.53;;;;;;;14.25;100.00;102115.63;5041921;28;20423;-81
2022/10/07 08:43:13;;;;;;;13.68;2.15;;;;;;;14.61;100.00;102108.38;5040863;28;20025;-83
2022/10/07 08:45:38;;;;;;;13.70;2.45;;;;;;;15.04;100.00;102104.16;5041166;28;20033;-82
2022/10/07 08:48:11;;;;;;;16.40;2.38;;;;;;;14.62;100.00;102081.66;5023007;28;20037;-82
2022/10/07 08:50:45;;;;;;;;;;;;;;;15.30;100.00;102107.63;5037729;28;20037;-82
2022/10/07 08:53:19;;;;;;;17.45;2.47;;;;;;;15.18;100.00;102109.50;5056502;28;19916;-82
2022/10/07 08:55:55;;;;;;;17.92;2.35;;;;;;;15.44;100.00;102099.09;5061827;28;20029;-82
2022/10/07 08:58:54;;;;;;;23.85;3.47;;;;;;;15.31;100.00;102101.09;5055584;28;20484;-82
2022/10/07 09:01:42;;;;;;;14.63;2.25;;;;;;;15.49;100.00;102101.50;5031838;28;20029;-83
2022/10/07 09:04:24;;;;;;;86.38;6.82;;;;;;;15.51;100.00;102098.63;5041393;28;20044;-82
2022/10/07 09:06:57;;;;;;;31.30;2.85;;;;;;;16.06;100.00;102094.16;5047318;28;20055;-82
2022/10/07 09:09:37;;;;;;;16.38;2.72;;;;;;;15.86;100.00;102075.63;5057782;28;20021;-81
2022/10/07 09:12:08;;;;;;;12.63;1.98;;;;;;;15.74;100.00;102085.72;5056440;28;20048;-81
2022/10/07 09:14:40;;;;;;;14.02;2.13;;;;;;;16.18;100.00;102078.44;5056019;28;20029;-82
2022/10/07 09:17:25;;;;;;;62.88;5.68;;;;;;;15.98;100.00;102078.22;5056915;28;20033;-82
2022/10/07 09:19:57;;;;;;;12.52;2.10;;;;;;;16.58;100.00;102077.88;5037361;28;20041;-83
2022/10/07 09:22:37;;;;;;;;;;;;;;;16.80;100.00;102076.88;5037816;28;20048;-83
2022/10/07 09:25:17;;;;;;;14.27;2.15;;;;;;;16.87;100.00;102071.72;5042922;28;19912;-82
2022/10/07 09:27:42;;;;;;;12.75;1.65;;;;;;;16.58;100.00;102066.81;5060276;28;20029;-82
2022/10/07 09:30:12;;;;;;;14.13;2.20;;;;;;;16.58;100.00;102057.59;5053875;28;20095;-82
2022/10/07 09:32:41;;;;;;;18.45;1.95;;;;;;;16.86;100.00;102057.03;5051600;28;20025;-81
2022/10/07 09:35:16;;;;;;;10.90;1.80;;;;;;;17.07;100.00;102054.28;5058374;28;20029;-82
2022/10/07 09:37:55;;;;;;;16.75;2.58;;;;;;;17.13;100.00;102050.09;5056718;28;20040;-81
2022/10/07 09:40:26;;;;;;;13.45;2.17;;;;;;;17.30;100.00;102058.78;5041073;28;20032;-82
2022/10/07 09:42:53;;;;;;;13.02;1.77;;;;;;;16.87;100.00;102050.50;5050093;28;20036;-81
2022/10/07 09:45:32;;;;;;;14.73;2.03;;;;;;;16.92;100.00;102041.78;5028239;28;20396;-81
2022/10/07 09:48:05;;;;;;;15.63;1.80;;;;;;;17.10;100.00;102039.28;5037881;28;20035;-82
2022/10/07 09:50:38;;;;;;;16.25;2.00;;;;;;;16.82;100.00;102044.47;5060046;28;20049;-82
2022/10/07 09:53:24;;;;;;;36.92;3.60;;;;;;;17.02;100.00;102028.00;5059506;28;20036;-80
2022/10/07 09:55:52;;;;;;;19.23;2.13;;;;;;;17.03;100.00;102035.31;5057118;28;20033;-82
2022/10/07 09:58:30;;;;;;;24.95;2.97;;;;;;;16.97;100.00;102022.00;5059721;28;20029;-82
2022/10/07 10:01:00;;;;;;;10.98;1.50;;;;;;;17.67;100.00;102022.28;5024769;28;20500;-81
2022/10/07 10:03:31;;;;;;;12.35;1.38;;;;;;;17.47;100.00;102030.47;5040542;28;20073;-81
2022/10/07 10:06:05;;;;;;;20.85;1.90;;;;;;;17.37;100.00;102024.03;5060252;28;20033;-80
2022/10/07 10:08:36;;;;;;;16.08;1.55;;;;;;;17.49;100.00;102027.59;5058249;28;20499;-81
2022/10/07 10:11:31;;;;;;;19.88;1.90;;;;;;;17.19;100.00;102021.88;5060343;28;20041;-81
2022/10/07 10:13:56;;;;;;;12.73;1.73;;;;;;;17.18;100.00;102027.53;5043353;28;20052;-81
2022/10/07 10:16:36;;;;;;;18.90;1.85;;;;;;;17.37;100.00;102013.81;5040190;28;20029;-81
2022/10/07 10:19:22;;;;;;;15.13;1.77;;;;;;;17.31;100.00;102013.50;5059205;28;20159;-81
2022/10/07 10:21:55;;;;;;;17.80;1.77;;;;;;;17.55;100.00;102015.97;5059436;28;20119;-82
2022/10/07 10:26:24;;;;;;;14.38;1.58;;;;;;;17.41;100.00;102003.34;5059277;28;20550;-81
2022/10/07 10:27:56;;;;;;;15.40;1.75;;;;;;;17.95;100.00;102006.78;5056050;28;20051;-82
2022/10/07 10:30:23;;;;;;;12.55;1.73;;;;;;;17.89;100.00;101993.50;5041795;28;20048;-81
2022/10/07 10:33:08;;;;;;;12.80;1.50;;;;;;;17.87;100.00;101990.88;5043857;28;20037;-81
2022/10/07 10:35:41;;;;;;;16.30;2.13;;;;;;;18.18;100.00;101996.34;5059968;28;20029;-82
2022/10/07 10:38:19;;;;;;;14.23;2.10;;;;;;;17.95;100.00;101990.16;5029939;28;20056;-82
2022/10/07 10:41:01;;;;;;;11.60;1.42;;;;;;;18.33;100.00;101980.16;5026490;28;20049;-82
2022/10/07 10:43:40;;;;;;;10.15;1.92;;;;;;;18.41;100.00;101974.75;5045048;28;20492;-82
2022/10/07 10:46:15;;;;;;;13.25;1.70;;;;;;;18.39;100.00;101976.81;5059976;28;20033;-82
2022/10/07 10:48:47;;;;;;;25.73;2.53;;;;;;;18.25;100.00;101974.47;5058911;28;20033;-82
2022/10/07 10:51:33;;;;;;;12.75;1.70;;;;;;;18.40;100.00;101966.59;5058721;28;20512;-82
2022/10/07 10:54:34;;;;;;;11.02;1.55;;;;;;;18.27;100.00;101967.75;5061274;28;20033;-82
2022/10/07 10:57:15;;;;;;;13.90;1.85;;;;;;;18.27;100.00;101953.03;5041281;28;20423;-82
2022/10/07 10:59:47;;;;;;;15.32;1.88;;;;;;;18.39;100.00;101957.41;5059862;28;20029;-82
2022/10/07 11:02:37;;;;;;;12.65;1.60;;;;;;;18.48;100.00;101950.09;5058574;28;20369;-82
2022/10/07 11:05:22;;;;;;;14.88;1.80;;;;;;;18.45;100.00;101948.50;5059584;28;20040;-81
2022/10/07 11:07:57;;;;;;;11.65;2.15;;;;;;;18.42;100.00;101947.91;5058335;28;20109;-81
2022/10/07 11:10:28;;;;;;;10.90;1.83;;;;;;;18.39;100.00;101943.53;5058002;28;20033;-81
2022/10/07 11:12:57;;;;;;;9.57;1.30;;;;;;;18.64;100.00;101939.28;5040944;28;20041;-81
2022/10/07 11:15:30;;;;;;;13.98;1.60;;;;;;;18.53;100.00;101936.69;5058059;28;20094;-80
2022/10/07 11:18:09;;;;;;;10.15;1.73;;;;;;;18.16;100.00;101931.84;5040765;28;20528;-81
2022/10/07 11:20:38;;;;;;;16.55;1.67;;;;;;;18.18;100.00;101922.38;5042435;28;20032;-81
2022/10/07 11:23:24;;;;;;;11.23;1.38;;;;;;;18.22;100.00;101927.63;5058554;28;20033;-81
2022/10/07 11:25:59;;;;;;;14.02;2.65;;;;;;;18.19;100.00;101926.03;5040209;28;20484;-81
2022/10/07 11:28:33;;;;;;;11.73;1.60;;;;;;;18.26;100.00;101916.09;5039436;28;20025;-82
2022/10/07 11:31:02;;;;;;;11.65;1.88;;;;;;;18.46;100.00;101911.44;5037666;28;20041;-82
2022/10/07 11:33:48;;;;;;;10.18;1.67;;;;;;;18.42;100.00;101903.56;5055426;28;20029;-82
2022/10/07 11:36:17;;;;;;;12.80;1.85;;;;;;;18.40;100.00;101900.91;5050375;28;20036;-81
2022/10/07 11:38:45;;;;;;;13.05;1.65;;;;;;;18.18;100.00;101894.66;5022810;28;20030;-81